Time;durP1;ratioP1;P1;durP2;ratioP2;P2;SDS_P1;SDS_P2;PMS_P1;PMS_P2;Temp;Humidity;BMP_temperature;BMP_pressure;BME280_temperature;BME280_humidity;BME280_pressure;Samples;Min_cycle;Max_cycle;Signal;HPM_P1;HPM_P2
2022/07/02 00:00:59;;;;;;;5.63;2.73;;;;;;;14.71;100.00;98761.47;5072935;28;20607;-69
2022/07/02 00:03:32;;;;;;;5.03;3.20;;;;;;;14.74;100.00;98760.19;5072938;28;20671;-68
2022/07/02 00:06:01;;;;;;;7.63;3.20;;;;;;;14.72;100.00;98762.28;5073177;28;20275;-69
2022/07/02 00:08:28;;;;;;;3.40;3.10;;;;;;;14.72;100.00;98767.63;5073056;28;20331;-69
2022/07/02 00:10:57;;;;;;;4.00;3.30;;;;;;;14.71;100.00;98761.47;5073010;28;20315;-68
2022/07/02 00:13:25;;;;;;;4.03;3.00;;;;;;;14.61;100.00;98755.84;5073108;28;20300;-68
2022/07/02 00:15:52;;;;;;;4.63;3.10;;;;;;;14.56;100.00;98763.72;5072736;28;20683;-68
2022/07/02 00:18:19;;;;;;;3.70;3.40;;;;;;;14.51;100.00;98752.09;5072456;28;20616;-69
2022/07/02 00:20:46;;;;;;;6.00;3.43;;;;;;;14.45;100.00;98766.34;5073058;28;20296;-68
2022/07/02 00:23:13;;;;;;;3.83;3.40;;;;;;;14.42;100.00;98761.47;5073060;28;20207;-69
2022/07/02 00:25:48;;;;;;;3.87;3.57;;;;;;;14.39;100.00;98760.03;5072780;28;20541;-69
2022/07/02 00:28:17;;;;;;;4.43;3.60;;;;;;;14.32;100.00;98764.69;5073468;28;20224;-68
2022/07/02 00:30:47;;;;;;;5.90;3.50;;;;;;;14.38;100.00;98766.44;5072756;28;20316;-68
2022/07/02 00:33:17;;;;;;;5.43;3.87;;;;;;;14.34;100.00;98759.91;5072867;28;20236;-68
2022/07/02 00:35:44;;;;;;;4.07;3.67;;;;;;;14.39;100.00;98761.91;5073511;28;20291;-69
2022/07/02 00:38:11;;;;;;;3.90;3.50;;;;;;;14.35;100.00;98768.75;5076273;28;20225;-68
2022/07/02 00:40:39;;;;;;;4.43;3.60;;;;;;;14.25;100.00;98766.59;5076537;28;20197;-68
2022/07/02 00:43:07;;;;;;;7.27;3.93;;;;;;;14.24;100.00;98767.66;5076546;28;20209;-69
2022/07/02 00:45:35;;;;;;;4.40;3.73;;;;;;;14.32;100.00;98763.84;5076482;28;20295;-69
2022/07/02 00:48:01;;;;;;;4.03;3.60;;;;;;;14.25;100.00;98760.47;5076389;28;20287;-68
2022/07/02 00:50:29;;;;;;;5.33;3.40;;;;;;;14.25;100.00;98760.47;5076384;28;20231;-68
2022/07/02 00:52:55;;;;;;;4.00;3.50;;;;;;;14.24;100.00;98758.84;5076388;28;20204;-69
2022/07/02 00:55:22;;;;;;;4.23;3.10;;;;;;;14.26;100.00;98770.13;5076329;28;20211;-69
2022/07/02 00:57:48;;;;;;;4.37;3.40;;;;;;;14.28;100.00;98766.16;5076187;28;20204;-68
2022/07/02 01:00:17;;;;;;;3.50;3.20;;;;;;;14.27;100.00;98764.53;5075871;28;20200;-68
2022/07/02 01:02:44;;;;;;;6.03;3.17;;;;;;;14.23;100.00;98760.69;5075835;28;20205;-68
2022/07/02 01:05:15;;;;;;;4.43;3.00;;;;;;;14.26;100.00;98764.75;5076169;28;20208;-68
2022/07/02 01:07:46;;;;;;;5.20;2.97;;;;;;;14.28;100.00;98760.00;5074704;28;20212;-68
2022/07/02 01:10:16;;;;;;;3.40;3.10;;;;;;;14.22;100.00;98758.22;5075999;28;20279;-68
2022/07/02 01:12:45;;;;;;;3.40;3.10;;;;;;;14.18;100.00;98757.84;5075952;28;20279;-69
2022/07/02 01:15:12;;;;;;;3.97;3.63;;;;;;;14.26;100.00;98754.06;5075629;28;20678;-69
2022/07/02 01:17:39;;;;;;;3.47;3.17;;;;;;;14.25;100.00;98749.75;5075575;28;20627;-69
2022/07/02 01:20:06;;;;;;;4.33;3.00;;;;;;;14.20;100.00;98752.25;5075469;28;20255;-68
2022/07/02 01:22:35;;;;;;;4.93;2.93;;;;;;;14.16;100.00;98746.53;5075657;28;20232;-69
2022/07/02 01:25:02;;;;;;;4.77;3.27;;;;;;;14.15;100.00;98746.78;5075437;28;20236;-68
2022/07/02 01:27:28;;;;;;;3.67;3.37;;;;;;;14.14;100.00;98751.28;5075702;28;20204;-69
2022/07/02 01:29:55;;;;;;;3.93;3.53;;;;;;;14.15;100.00;98738.75;5075353;28;20312;-68
2022/07/02 01:32:22;;;;;;;4.10;2.97;;;;;;;14.11;100.00;98742.91;5075605;28;20229;-69
2022/07/02 01:34:50;;;;;;;4.50;3.20;;;;;;;14.11;100.00;98745.59;5075586;28;20295;-68
2022/07/02 01:37:18;;;;;;;3.83;3.50;;;;;;;14.05;100.00;98746.47;5075195;28;20566;-69
2022/07/02 01:39:46;;;;;;;3.60;3.30;;;;;;;13.94;100.00;98744.56;5075435;28;20319;-69
2022/07/02 01:42:13;;;;;;;4.93;3.33;;;;;;;13.91;100.00;98742.31;5075469;28;20306;-68
2022/07/02 01:44:40;;;;;;;4.40;3.30;;;;;;;13.99;100.00;98740.19;5075397;28;20303;-69
2022/07/02 01:47:09;;;;;;;4.43;3.50;;;;;;;13.99;100.00;98742.84;5074563;28;20215;-69
2022/07/02 01:49:37;;;;;;;4.07;3.70;;;;;;;13.99;100.00;98744.69;5075263;28;20312;-69
2022/07/02 01:52:04;;;;;;;5.00;3.83;;;;;;;13.98;100.00;98743.88;5074856;28;20234;-69
2022/07/02 01:54:31;;;;;;;8.73;4.27;;;;;;;13.94;100.00;98742.72;5075133;28;20207;-68
2022/07/02 01:56:57;;;;;;;4.33;4.00;;;;;;;13.93;100.00;98743.72;5075100;28;20212;-68
2022/07/02 01:59:24;;;;;;;4.27;3.70;;;;;;;13.93;100.00;98746.41;5075058;28;20227;-68
2022/07/02 02:01:51;;;;;;;4.27;3.87;;;;;;;13.89;100.00;98747.88;5075087;28;20284;-68
2022/07/02 02:04:17;;;;;;;4.43;3.80;;;;;;;13.83;100.00;98751.44;5074993;28;20307;-69
2022/07/02 02:06:44;;;;;;;4.30;4.00;;;;;;;13.83;100.00;98747.97;5074662;28;20295;-69
2022/07/02 02:09:10;;;;;;;4.50;4.10;;;;;;;13.88;100.00;98748.94;5074566;28;20224;-68
2022/07/02 02:11:37;;;;;;;8.33;4.40;;;;;;;13.88;100.00;98748.13;5074466;28;20224;-68
2022/07/02 02:14:04;;;;;;;6.70;3.97;;;;;;;13.84;100.00;98746.94;5074818;28;20204;-68
2022/07/02 02:16:32;;;;;;;5.67;4.10;;;;;;;13.84;100.00;98753.09;5074426;28;20207;-68
2022/07/02 02:18:59;;;;;;;5.13;4.57;;;;;;;13.91;100.00;98750.34;5074324;28;20237;-68
2022/07/02 02:21:28;;;;;;;4.97;4.47;;;;;;;13.84;100.00;98741.59;5074348;28;20639;-69
2022/07/02 02:23:55;;;;;;;4.60;4.20;;;;;;;13.82;100.00;98746.31;5074593;28;20201;-69
2022/07/02 02:26:23;;;;;;;5.00;4.23;;;;;;;13.83;100.00;98748.78;5074571;28;20201;-68
2022/07/02 02:28:50;;;;;;;4.23;3.80;;;;;;;13.82;100.00;98738.31;5074135;28;20786;-68
2022/07/02 02:31:17;;;;;;;4.60;4.07;;;;;;;13.80;100.00;98741.19;5074080;28;20702;-68
2022/07/02 02:33:43;;;;;;;4.40;4.00;;;;;;;13.81;100.00;98739.34;5074458;28;20207;-68
2022/07/02 02:36:09;;;;;;;5.40;4.13;;;;;;;13.73;100.00;98745.81;5073854;28;20748;-68
2022/07/02 02:38:37;;;;;;;4.07;3.53;;;;;;;13.80;100.00;98741.19;5074284;28;20228;-69
2022/07/02 02:41:09;;;;;;;6.47;3.70;;;;;;;13.74;100.00;98742.09;5074300;28;20203;-69
2022/07/02 02:43:36;;;;;;;3.70;3.40;;;;;;;13.73;100.00;98735.13;5074326;28;20199;-69
2022/07/02 02:46:04;;;;;;;11.30;3.53;;;;;;;13.70;100.00;98734.75;5073862;28;20671;-69
2022/07/02 02:48:31;;;;;;;3.80;3.37;;;;;;;13.64;100.00;98744.47;5074108;28;20279;-68
2022/07/02 02:50:59;;;;;;;4.90;3.33;;;;;;;13.54;100.00;98741.50;5073773;28;20238;-68
2022/07/02 02:53:26;;;;;;;4.07;3.17;;;;;;;13.54;100.00;98746.84;5074123;28;20295;-69
2022/07/02 02:55:52;;;;;;;5.60;3.53;;;;;;;13.57;100.00;98745.59;5073754;28;20215;-69
2022/07/02 02:58:19;;;;;;;3.60;3.30;;;;;;;13.61;100.00;98747.56;5073801;28;20221;-68
2022/07/02 03:00:46;;;;;;;3.67;3.20;;;;;;;13.63;100.00;98734.84;5073944;28;20207;-68
2022/07/02 03:03:12;;;;;;;3.90;3.50;;;;;;;13.65;100.00;98738.09;5073488;28;20299;-68
2022/07/02 03:05:39;;;;;;;4.00;3.60;;;;;;;13.68;100.00;98748.34;5073849;28;20215;-68
2022/07/02 03:08:05;;;;;;;6.00;3.37;;;;;;;13.63;100.00;98750.03;5073783;28;20311;-69
2022/07/02 03:10:32;;;;;;;5.73;3.40;;;;;;;13.55;100.00;98743.13;5073424;28;20205;-69
2022/07/02 03:12:58;;;;;;;3.20;3.00;;;;;;;13.62;100.00;98745.72;5073638;28;20250;-68
2022/07/02 03:15:25;;;;;;;3.40;3.10;;;;;;;13.64;100.00;98747.16;5073703;28;20220;-68
2022/07/02 03:17:51;;;;;;;3.30;3.00;;;;;;;13.60;100.00;98740.59;5073171;28;20204;-69
2022/07/02 03:20:18;;;;;;;5.67;3.50;;;;;;;13.56;100.00;98750.09;5073270;28;20581;-68
2022/07/02 03:22:44;;;;;;;6.77;2.90;;;;;;;13.51;100.00;98741.09;5073122;28;20292;-69
2022/07/02 03:25:11;;;;;;;3.70;2.70;;;;;;;13.48;100.00;98746.91;5073518;28;20211;-68
2022/07/02 03:27:38;;;;;;;5.40;3.00;;;;;;;13.53;100.00;98749.72;5073618;28;20235;-68
2022/07/02 03:30:06;;;;;;;3.87;2.93;;;;;;;13.54;100.00;98757.53;5073393;28;20311;-68
2022/07/02 03:32:32;;;;;;;5.40;3.03;;;;;;;13.48;100.00;98755.72;5073447;28;20224;-69
2022/07/02 03:34:59;;;;;;;4.10;2.60;;;;;;;13.52;100.00;98751.56;5073157;28;20208;-68
2022/07/02 03:37:28;;;;;;;3.80;2.70;;;;;;;13.52;100.00;98759.59;5073361;28;20296;-68
2022/07/02 03:39:55;;;;;;;4.57;2.83;;;;;;;13.47;100.00;98763.97;5073386;28;20277;-69
2022/07/02 03:42:22;;;;;;;3.30;2.63;;;;;;;13.48;100.00;98766.41;5073372;28;20200;-68
2022/07/02 03:44:48;;;;;;;2.87;2.67;;;;;;;13.51;100.00;98767.81;5073167;28;20211;-69
2022/07/02 03:47:15;;;;;;;3.30;3.00;;;;;;;13.51;100.00;98765.97;5073160;28;20295;-69
2022/07/02 03:49:41;;;;;;;3.00;2.70;;;;;;;13.56;100.00;98768.00;5073218;28;20230;-69
2022/07/02 03:52:08;;;;;;;4.33;2.73;;;;;;;13.51;100.00;98768.66;5073141;28;20234;-68
2022/07/02 03:54:34;;;;;;;5.57;2.40;;;;;;;13.51;100.00;98765.97;5073388;28;20271;-69
2022/07/02 03:57:01;;;;;;;4.23;2.60;;;;;;;13.54;100.00;98770.06;5073278;28;20200;-68
2022/07/02 03:59:27;;;;;;;2.97;2.77;;;;;;;13.56;100.00;98770.66;5073197;28;20581;-68
2022/07/02 04:01:53;;;;;;;3.07;2.87;;;;;;;13.60;100.00;98769.16;5072969;28;20295;-68
2022/07/02 04:04:21;;;;;;;3.00;2.80;;;;;;;13.54;100.00;98773.56;5072862;28;20209;-68
2022/07/02 04:06:47;;;;;;;4.00;2.67;;;;;;;13.56;100.00;98766.13;5073193;28;20227;-68
2022/07/02 04:09:14;;;;;;;5.97;3.27;;;;;;;13.60;100.00;98771.84;5072955;28;20226;-68
2022/07/02 04:11:41;;;;;;;5.17;3.30;;;;;;;13.63;100.00;98768.75;5075281;28;20224;-69
2022/07/02 04:14:07;;;;;;;4.57;3.33;;;;;;;13.63;100.00;98777.59;5077040;28;20270;-68
2022/07/02 04:16:34;;;;;;;3.70;2.97;;;;;;;13.66;100.00;98771.78;5077116;28;20208;-69
2022/07/02 04:19:00;;;;;;;5.10;3.60;;;;;;;13.74;100.00;98774.16;5076473;28;20238;-69
2022/07/02 04:21:27;;;;;;;4.37;2.97;;;;;;;13.78;100.00;98772.69;5076655;28;20203;-68
2022/07/02 04:23:53;;;;;;;3.90;3.07;;;;;;;13.74;100.00;98776.03;5076916;28;20218;-69
2022/07/02 04:26:19;;;;;;;4.00;3.30;;;;;;;13.77;100.00;98768.38;5076881;28;20294;-68
2022/07/02 04:28:46;;;;;;;4.70;3.40;;;;;;;13.76;100.00;98774.78;5076693;28;20229;-69
2022/07/02 04:31:12;;;;;;;4.10;3.60;;;;;;;13.72;100.00;98780.78;5076687;28;20555;-68
2022/07/02 04:33:39;;;;;;;4.17;3.07;;;;;;;13.78;100.00;98772.69;5076424;28;20303;-68
2022/07/02 04:36:05;;;;;;;4.40;3.60;;;;;;;13.87;100.00;98771.34;5076581;28;20295;-69
2022/07/02 04:38:31;;;;;;;3.70;3.40;;;;;;;13.98;100.00;98769.81;5076787;28;20307;-69
2022/07/02 04:40:58;;;;;;;6.97;3.87;;;;;;;13.98;100.00;98773.28;5076302;28;20291;-69
2022/07/02 04:43:24;;;;;;;6.40;3.60;;;;;;;14.03;100.00;98776.13;5076467;28;20295;-68
2022/07/02 04:45:51;;;;;;;4.93;3.37;;;;;;;14.07;100.00;98782.63;5076150;28;20200;-69
2022/07/02 04:48:17;;;;;;;5.47;3.53;;;;;;;14.13;100.00;98773.75;5075726;28;20225;-69
2022/07/02 04:50:43;;;;;;;5.07;3.07;;;;;;;14.18;100.00;98778.41;5076343;28;20219;-68
2022/07/02 04:53:10;;;;;;;4.40;4.00;;;;;;;14.28;100.00;98776.03;5075671;28;20706;-68
2022/07/02 04:55:36;;;;;;;4.87;3.50;;;;;;;14.33;100.00;98779.69;5076172;28;20291;-69
2022/07/02 04:58:03;;;;;;;3.87;3.10;;;;;;;14.39;100.00;98773.41;5075789;28;20722;-68
2022/07/02 05:00:29;;;;;;;5.27;3.43;;;;;;;14.46;100.00;98779.50;5076737;28;20215;-69
2022/07/02 05:02:56;;;;;;;5.90;3.50;;;;;;;14.54;100.00;98779.22;5076221;28;20211;-68
2022/07/02 05:05:22;;;;;;;4.30;3.90;;;;;;;14.69;100.00;98778.78;5076029;28;20211;-69
2022/07/02 05:07:49;;;;;;;3.83;3.47;;;;;;;14.67;100.00;98775.53;5075960;28;20295;-69
2022/07/02 05:10:15;;;;;;;3.70;3.40;;;;;;;14.74;100.00;98778.94;5076072;28;20303;-69
2022/07/02 05:12:42;;;;;;;3.70;3.13;;;;;;;15.01;100.00;98782.88;5075897;28;20252;-68
2022/07/02 05:15:09;;;;;;;6.07;3.00;;;;;;;15.36;100.00;98784.56;5075924;28;20201;-69
2022/07/02 05:17:35;;;;;;;3.47;3.17;;;;;;;15.43;100.00;98782.59;5075490;28;20212;-69
2022/07/02 05:20:01;;;;;;;3.33;2.80;;;;;;;15.90;100.00;98781.53;5075403;28;20327;-69
2022/07/02 05:22:28;;;;;;;4.73;2.53;;;;;;;16.50;97.50;98787.38;5074439;28;20283;-68
2022/07/02 05:24:54;;;;;;;2.27;2.07;;;;;;;17.29;91.41;98787.22;5075439;28;20763;-69
2022/07/02 05:27:21;;;;;;;2.53;2.20;;;;;;;17.57;88.68;98792.53;5075752;28;20204;-69
2022/07/02 05:29:47;;;;;;;3.77;2.47;;;;;;;17.51;87.97;98785.47;5075729;28;20335;-69
2022/07/02 05:32:13;;;;;;;2.70;2.50;;;;;;;17.56;87.53;98791.72;5075590;28;20229;-69
2022/07/02 05:34:40;;;;;;;3.73;2.27;;;;;;;17.29;87.76;98796.06;5075274;28;20758;-69
2022/07/02 05:37:06;;;;;;;2.70;2.33;;;;;;;16.99;89.55;98794.75;5075036;28;20675;-69
2022/07/02 05:39:32;;;;;;;4.80;2.40;;;;;;;16.50;91.90;98796.25;5075130;28;20323;-69
2022/07/02 05:41:59;;;;;;;2.33;2.13;;;;;;;16.57;92.80;98794.25;5075105;28;20200;-69
2022/07/02 05:44:25;;;;;;;3.30;2.43;;;;;;;16.70;93.28;98795.81;5075078;28;20211;-69
2022/07/02 05:46:52;;;;;;;2.87;2.30;;;;;;;16.71;92.56;98797.44;5075200;28;20295;-69
2022/07/02 05:49:18;;;;;;;4.63;2.57;;;;;;;16.63;94.84;98801.34;5075283;28;20231;-68
2022/07/02 05:51:44;;;;;;;4.43;2.40;;;;;;;16.57;93.93;98793.44;5074766;28;20223;-69
2022/07/02 05:54:11;;;;;;;3.63;2.20;;;;;;;16.64;96.78;98802.97;5075129;28;20244;-69
2022/07/02 05:56:37;;;;;;;6.17;2.27;;;;;;;16.69;94.50;98792.31;5074667;28;20204;-69
2022/07/02 05:59:04;;;;;;;3.83;2.60;;;;;;;16.62;96.16;98798.88;5075033;28;20224;-68
2022/07/02 06:01:31;;;;;;;2.83;2.63;;;;;;;16.79;92.51;98794.38;5075066;28;20228;-69
2022/07/02 06:03:57;;;;;;;3.73;2.63;;;;;;;16.66;91.47;98795.50;5075527;28;20240;-69
2022/07/02 06:09:07;;;;;;;2.33;2.13;;;;;;;16.94;89.62;98792.78;5074555;28;20757;-69
2022/07/02 06:11:34;;;;;;;2.70;2.50;;;;;;;16.87;91.19;98794.81;5075252;28;20239;-69
2022/07/02 06:14:00;;;;;;;2.40;2.20;;;;;;;16.94;91.83;98798.16;5074677;28;20299;-69
2022/07/02 06:16:27;;;;;;;2.83;1.97;;;;;;;16.77;90.35;98799.16;5074550;28;20232;-69
2022/07/02 06:18:54;;;;;;;2.00;1.80;;;;;;;16.79;88.87;98792.50;5074275;28;20232;-69
2022/07/02 06:21:20;;;;;;;1.63;1.53;;;;;;;17.04;90.30;98792.97;5074750;28;20200;-69
2022/07/02 06:23:47;;;;;;;1.53;1.43;;;;;;;17.17;88.92;98798.03;5074144;28;20291;-68
2022/07/02 06:26:13;;;;;;;2.70;1.57;;;;;;;17.08;87.39;98787.91;5074287;28;20231;-69
2022/07/02 06:28:40;;;;;;;1.83;1.23;;;;;;;17.20;87.48;98792.16;5073927;28;20786;-69
2022/07/02 06:31:06;;;;;;;1.90;1.13;;;;;;;17.21;86.27;98795.66;5074334;28;20227;-69
2022/07/02 06:33:32;;;;;;;2.13;1.70;;;;;;;17.43;86.89;98792.06;5073885;28;20307;-68
2022/07/02 06:35:59;;;;;;;1.40;1.30;;;;;;;17.42;84.31;98789.63;5074120;28;20562;-68
2022/07/02 06:38:25;;;;;;;1.20;1.10;;;;;;;17.46;82.92;98791.56;5074106;28;20311;-69
2022/07/02 06:40:53;;;;;;;2.50;1.07;;;;;;;17.38;85.53;98794.59;5074571;28;20208;-69
2022/07/02 06:43:20;;;;;;;2.13;1.30;;;;;;;17.50;84.04;98787.31;5073608;28;20686;-69
2022/07/02 06:45:46;;;;;;;1.53;1.10;;;;;;;17.54;84.79;98788.47;5074494;28;20204;-69
2022/07/02 06:48:13;;;;;;;3.50;1.27;;;;;;;17.56;83.37;98786.34;5073511;28;20361;-69
2022/07/02 06:50:39;;;;;;;1.30;1.20;;;;;;;17.79;81.24;98790.72;5073219;28;20204;-68
2022/07/02 06:53:06;;;;;;;1.77;1.20;;;;;;;17.64;80.98;98790.50;5074318;28;20228;-69
2022/07/02 06:55:32;;;;;;;3.30;1.30;;;;;;;17.96;79.69;98776.16;5073602;28;20201;-69
2022/07/02 06:57:59;;;;;;;2.00;1.00;;;;;;;17.77;77.67;98784.75;5073594;28;20243;-68
2022/07/02 07:00:25;;;;;;;1.30;1.20;;;;;;;17.92;78.57;98780.41;5073818;28;20205;-68
2022/07/02 07:02:52;;;;;;;1.40;1.00;;;;;;;18.01;78.56;98787.00;5073330;28;20693;-68
2022/07/02 07:05:18;;;;;;;1.10;1.10;;;;;;;18.06;76.52;98787.06;5074037;28;20283;-69
2022/07/02 07:07:44;;;;;;;1.23;1.10;;;;;;;18.04;76.12;98785.69;5073212;28;20648;-69
2022/07/02 07:10:11;;;;;;;1.57;1.10;;;;;;;18.34;76.71;98780.72;5073952;28;20236;-68
2022/07/02 07:12:37;;;;;;;1.10;1.00;;;;;;;18.16;77.00;98789.91;5073317;28;20587;-68
2022/07/02 07:15:06;;;;;;;1.83;1.00;;;;;;;18.17;75.65;98788.84;5073723;28;20295;-68
2022/07/02 07:17:33;;;;;;;1.07;1.00;;;;;;;18.29;75.38;98786.03;5073242;28;20729;-69
2022/07/02 07:19:59;;;;;;;1.57;1.13;;;;;;;18.32;75.63;98797.09;5072916;28;20715;-69
2022/07/02 07:22:26;;;;;;;1.27;1.10;;;;;;;18.31;75.33;98790.09;5073336;28;20296;-69
2022/07/02 07:24:52;;;;;;;1.07;1.00;;;;;;;18.50;77.94;98785.25;5074113;28;20608;-69
2022/07/02 07:27:20;;;;;;;1.60;1.10;;;;;;;18.61;75.65;98786.97;5073293;28;20204;-69
2022/07/02 07:29:47;;;;;;;1.43;1.30;;;;;;;18.63;76.24;98782.97;5073297;28;20579;-69
2022/07/02 07:32:13;;;;;;;1.97;1.20;;;;;;;18.82;75.15;98788.84;5073228;28;20361;-69
2022/07/02 07:34:39;;;;;;;3.03;1.27;;;;;;;19.02;75.13;98786.31;5072538;28;20642;-69
2022/07/02 07:37:06;;;;;;;1.30;1.20;;;;;;;19.03;75.40;98783.38;5072469;28;20200;-69
2022/07/02 07:39:32;;;;;;;1.47;1.37;;;;;;;18.98;74.14;98780.63;5072683;28;20759;-69
2022/07/02 07:41:59;;;;;;;1.80;1.10;;;;;;;19.04;76.64;98771.53;5072904;28;20205;-68
2022/07/02 07:44:25;;;;;;;2.07;1.30;;;;;;;19.12;75.83;98771.06;5072803;28;20296;-69
2022/07/02 07:46:51;;;;;;;2.13;1.20;;;;;;;19.36;76.63;98780.47;5072560;28;20303;-68
2022/07/02 07:49:18;;;;;;;2.90;1.00;;;;;;;19.39;74.35;98771.03;5073140;28;20646;-69
2022/07/02 07:51:44;;;;;;;2.77;1.20;;;;;;;19.52;72.55;98774.13;5073017;28;20235;-68
2022/07/02 07:54:11;;;;;;;1.40;1.30;;;;;;;19.64;71.99;98779.34;5072707;28;20652;-68
2022/07/02 07:56:37;;;;;;;2.30;1.20;;;;;;;19.83;74.32;98767.03;5073139;28;20204;-69
2022/07/02 07:59:04;;;;;;;2.10;1.10;;;;;;;19.87;70.48;98760.06;5072766;28;20229;-69
2022/07/02 08:01:30;;;;;;;1.80;1.07;;;;;;;19.77;67.94;98769.97;5072676;28;20204;-69
2022/07/02 08:03:57;;;;;;;1.07;0.97;;;;;;;19.62;68.20;98764.50;5072720;28;20597;-69
2022/07/02 08:06:23;;;;;;;1.33;0.83;;;;;;;19.63;68.20;98770.41;5072616;28;20291;-69
2022/07/02 08:08:49;;;;;;;1.17;0.80;;;;;;;19.86;65.09;98758.44;5072428;28;20311;-69
2022/07/02 08:11:16;;;;;;;1.90;0.80;;;;;;;20.04;65.21;98758.00;5072296;28;20555;-69
2022/07/02 08:13:42;;;;;;;0.80;0.80;;;;;;;20.41;62.95;98747.94;5071762;28;20220;-69
2022/07/02 08:16:09;;;;;;;0.70;0.60;;;;;;;20.13;61.67;98755.63;5072789;28;20209;-69
2022/07/02 08:18:35;;;;;;;2.67;0.70;;;;;;;20.19;63.26;98752.69;5072564;28;20232;-69
2022/07/02 08:21:02;;;;;;;1.13;0.80;;;;;;;20.22;63.33;98752.19;5072649;28;20209;-69
2022/07/02 08:23:28;;;;;;;0.80;0.80;;;;;;;20.25;61.45;98740.81;5072621;28;20292;-69
2022/07/02 08:25:56;;;;;;;1.20;0.90;;;;;;;20.48;61.27;98744.97;5072827;28;20208;-68
2022/07/02 08:28:23;;;;;;;1.37;0.70;;;;;;;20.64;59.56;98746.63;5072280;28;20617;-68
2022/07/02 08:30:49;;;;;;;1.07;0.67;;;;;;;20.67;60.16;98738.00;5072286;28;20204;-69
2022/07/02 08:33:16;;;;;;;1.43;0.70;;;;;;;20.79;58.18;98738.56;5072599;28;20232;-69
2022/07/02 08:35:43;;;;;;;1.87;0.90;;;;;;;21.02;57.29;98746.19;5072101;28;20671;-69
2022/07/02 08:38:10;;;;;;;1.07;0.73;;;;;;;20.75;58.42;98743.69;5072489;28;20228;-69
2022/07/02 08:40:36;;;;;;;0.93;0.70;;;;;;;20.77;60.00;98746.13;5072009;28;20679;-69
2022/07/02 08:43:04;;;;;;;0.90;0.60;;;;;;;20.81;56.14;98737.22;5072506;28;20197;-69
2022/07/02 08:45:32;;;;;;;1.67;0.77;;;;;;;20.83;57.52;98743.16;5072647;28;20207;-69
2022/07/02 08:48:00;;;;;;;0.67;0.67;;;;;;;20.92;59.67;98727.25;5072769;28;20201;-69
2022/07/02 08:50:26;;;;;;;1.20;0.80;;;;;;;20.86;57.27;98723.72;5072719;28;20209;-69
2022/07/02 08:52:53;;;;;;;0.60;0.60;;;;;;;21.30;52.88;98738.34;5072508;28;20220;-69
2022/07/02 08:55:21;;;;;;;1.73;0.80;;;;;;;21.18;52.66;98728.88;5072711;28;20204;-69
2022/07/02 08:57:49;;;;;;;0.70;0.70;;;;;;;21.17;56.10;98713.75;5074994;28;20211;-69
2022/07/02 09:00:17;;;;;;;0.97;0.60;;;;;;;21.00;54.57;98710.50;5075771;28;20211;-69
2022/07/02 09:02:44;;;;;;;1.40;0.70;;;;;;;21.18;55.08;98712.66;5076079;28;20291;-70
2022/07/02 09:05:12;;;;;;;2.37;0.90;;;;;;;21.42;52.83;98709.13;5076044;28;20315;-69
2022/07/02 09:07:39;;;;;;;0.77;0.70;;;;;;;21.64;52.37;98703.41;5075962;28;20287;-69
2022/07/02 09:10:06;;;;;;;0.83;0.80;;;;;;;21.70;52.02;98710.47;5075899;28;20228;-69
2022/07/02 09:12:33;;;;;;;3.27;0.80;;;;;;;21.44;51.44;98708.88;5075662;28;20287;-69
2022/07/02 09:14:59;;;;;;;0.90;0.70;;;;;;;21.57;51.76;98695.56;5075674;28;20204;-69
2022/07/02 09:17:26;;;;;;;0.80;0.80;;;;;;;22.00;51.97;98688.72;5075784;28;20342;-69
2022/07/02 09:19:52;;;;;;;1.00;0.90;;;;;;;22.07;48.62;98683.81;5075395;28;20233;-69
2022/07/02 09:22:18;;;;;;;0.68;0.68;;;;;;;22.15;47.11;98681.34;5075361;28;20671;-69
2022/07/02 09:24:45;;;;;;;1.55;0.70;;;;;;;22.36;48.39;98684.75;5075118;28;20295;-68
2022/07/02 09:27:14;;;;;;;0.93;0.90;;;;;;;22.20;45.90;98675.09;5075283;28;20571;-69
2022/07/02 09:29:48;;;;;;;0.68;0.68;;;;;;;22.03;46.71;98674.63;5075365;28;20235;-69
2022/07/02 09:32:16;;;;;;;1.27;1.17;;;;;;;22.36;45.97;98668.50;5075346;28;20204;-69
2022/07/02 09:34:45;;;;;;;0.95;0.70;;;;;;;22.58;45.22;98682.50;5075319;28;20246;-69
2022/07/02 09:37:25;;;;;;;0.93;0.90;;;;;;;22.64;48.40;98682.19;5075285;28;20208;-68
2022/07/02 09:39:53;;;;;;;2.25;0.88;;;;;;;22.72;45.85;98681.59;5074668;28;20594;-68
2022/07/02 09:42:34;;;;;;;0.80;0.70;;;;;;;22.79;45.43;98689.41;5074868;28;20303;-69
2022/07/02 09:45:04;;;;;;;0.80;0.80;;;;;;;23.01;45.64;98689.78;5074996;28;20189;-69
2022/07/02 09:47:38;;;;;;;3.72;0.90;;;;;;;23.09;44.80;98684.56;5075070;28;20757;-69
2022/07/02 09:50:07;;;;;;;1.00;1.00;;;;;;;22.95;45.16;98690.91;5074946;28;20308;-69
2022/07/02 09:52:34;;;;;;;0.80;0.77;;;;;;;23.11;43.36;98690.50;5074734;28;20212;-69
2022/07/02 09:55:01;;;;;;;0.80;0.80;;;;;;;23.23;44.69;98692.88;5074099;28;20211;-69
2022/07/02 09:57:28;;;;;;;0.85;0.70;;;;;;;23.28;45.21;98693.63;5074613;28;20204;-69
2022/07/02 10:00:04;;;;;;;1.92;1.60;;;;;;;23.30;44.74;98686.03;5073989;28;20228;-69
2022/07/02 10:02:31;;;;;;;2.47;1.10;;;;;;;23.43;44.70;98679.13;5074378;28;20188;-69
2022/07/02 10:04:57;;;;;;;8.68;7.70;;;;;;;23.40;44.50;98685.13;5074435;28;20201;-69
2022/07/02 10:07:25;;;;;;;0.85;0.85;;;;;;;23.53;42.78;98687.16;5074310;28;20635;-69
2022/07/02 10:09:52;;;;;;;1.38;1.02;;;;;;;23.32;43.23;98691.97;5073842;28;20307;-69
2022/07/02 10:12:20;;;;;;;2.10;1.10;;;;;;;23.60;47.09;98687.66;5074069;28;20213;-69
2022/07/02 10:14:48;;;;;;;0.70;0.70;;;;;;;23.85;43.24;98681.94;5074140;28;20693;-69
2022/07/02 10:17:16;;;;;;;1.20;1.10;;;;;;;23.68;41.21;98678.84;5074403;28;20211;-69
2022/07/02 10:19:43;;;;;;;0.80;0.80;;;;;;;23.68;41.11;98676.13;5074542;28;20240;-69
2022/07/02 10:22:10;;;;;;;1.13;0.90;;;;;;;23.63;40.51;98668.88;5073999;28;20296;-69
2022/07/02 10:24:37;;;;;;;0.80;0.80;;;;;;;23.86;42.69;98665.34;5073973;28;20682;-69
2022/07/02 10:27:05;;;;;;;2.20;1.35;;;;;;;23.91;40.37;98659.06;5074280;28;20208;-69
2022/07/02 10:29:31;;;;;;;1.58;0.80;;;;;;;24.03;39.93;98662.19;5073646;28;20224;-69
2022/07/02 10:32:09;;;;;;;1.40;1.30;;;;;;;23.80;39.35;98668.41;5074006;28;20204;-68
2022/07/02 10:34:52;;;;;;;0.88;0.88;;;;;;;23.61;40.08;98653.97;5072856;28;20292;-69
2022/07/02 10:37:19;;;;;;;0.80;0.80;;;;;;;23.83;40.54;98660.47;5074214;28;20284;-69
2022/07/02 10:39:46;;;;;;;2.03;1.20;;;;;;;23.74;39.10;98658.72;5073719;28;20587;-69
2022/07/02 10:42:12;;;;;;;1.65;1.45;;;;;;;23.89;39.13;98661.25;5073477;28;20214;-69
2022/07/02 10:44:44;;;;;;;2.75;0.95;;;;;;;24.10;39.04;98651.78;5073726;28;20201;-69
2022/07/02 10:47:18;;;;;;;3.13;0.80;;;;;;;24.16;38.64;98651.41;5073793;28;20207;-68
2022/07/02 10:49:45;;;;;;;1.48;0.95;;;;;;;24.33;39.04;98648.22;5073773;28;20239;-69
2022/07/02 10:52:11;;;;;;;2.00;1.23;;;;;;;24.36;40.34;98647.59;5073487;28;20686;-69
2022/07/02 10:54:43;;;;;;;3.22;2.95;;;;;;;24.14;38.61;98639.22;5073677;28;20228;-69
2022/07/02 10:57:16;;;;;;;1.70;1.08;;;;;;;23.96;38.86;98650.84;5073677;28;20193;-69
2022/07/02 10:59:44;;;;;;;1.15;1.08;;;;;;;23.74;39.04;98637.78;5073107;28;20699;-69
2022/07/02 11:02:11;;;;;;;1.10;1.00;;;;;;;24.04;39.81;98631.19;5073491;28;20209;-69
2022/07/02 11:04:38;;;;;;;1.45;0.73;;;;;;;24.18;39.37;98632.91;5072874;28;20501;-70
2022/07/02 11:07:09;;;;;;;1.35;1.25;;;;;;;24.09;38.53;98645.53;5073422;28;20208;-69
2022/07/02 11:09:46;;;;;;;1.00;0.90;;;;;;;23.88;39.07;98638.69;5072897;28;20315;-69
2022/07/02 11:12:17;;;;;;;1.98;1.02;;;;;;;24.23;39.05;98645.59;5073327;28;20239;-69
2022/07/02 11:14:54;;;;;;;1.50;0.98;;;;;;;24.31;38.57;98637.63;5073335;28;20296;-68
2022/07/02 11:17:23;;;;;;;0.60;0.60;;;;;;;24.46;37.99;98633.88;5073553;28;20216;-69
2022/07/02 11:19:54;;;;;;;0.90;0.90;;;;;;;24.40;37.62;98643.19;5072345;28;20290;-68
2022/07/02 11:22:22;;;;;;;1.25;1.15;;;;;;;23.96;36.45;98632.66;5073704;28;20204;-71
2022/07/02 11:24:50;;;;;;;0.77;0.77;;;;;;;23.98;35.97;98635.09;5073427;28;20215;-69
2022/07/02 11:27:16;;;;;;;0.70;0.70;;;;;;;24.25;37.95;98627.13;5072938;28;20736;-68
2022/07/02 11:29:55;;;;;;;1.10;1.00;;;;;;;24.06;37.28;98623.59;5072968;28;20311;-69
2022/07/02 11:32:22;;;;;;;1.00;1.00;;;;;;;24.07;37.30;98619.75;5072785;28;20302;-68